sensor_id;sensor_type;location;lat;lon;timestamp;P1;durP1;ratioP1;P2;durP2;ratioP2
7273;SDS011;3678;60.002;17.846;2022-10-16T00:01:25;36.03;;;21.50;;
7273;SDS011;3678;60.002;17.846;2022-10-16T00:03:53;39.13;;;21.17;;
7273;SDS011;3678;60.002;17.846;2022-10-16T00:06:22;36.60;;;20.57;;
7273;SDS011;3678;60.002;17.846;2022-10-16T00:08:49;42.30;;;22.33;;
7273;SDS011;3678;60.002;17.846;2022-10-16T00:11:18;36.97;;;21.33;;
7273;SDS011;3678;60.002;17.846;2022-10-16T00:13:46;40.50;;;21.93;;
7273;SDS011;3678;60.002;17.846;2022-10-16T00:16:14;36.97;;;22.13;;
7273;SDS011;3678;60.002;17.846;2022-10-16T00:18:41;35.87;;;21.10;;
7273;SDS011;3678;60.002;17.846;2022-10-16T00:21:09;35.73;;;21.50;;
7273;SDS011;3678;60.002;17.846;2022-10-16T00:23:38;36.07;;;20.70;;
7273;SDS011;3678;60.002;17.846;2022-10-16T00:26:06;34.20;;;21.43;;
7273;SDS011;3678;60.002;17.846;2022-10-16T00:28:34;35.97;;;20.60;;
7273;SDS011;3678;60.002;17.846;2022-10-16T00:31:02;35.77;;;19.90;;
7273;SDS011;3678;60.002;17.846;2022-10-16T00:33:29;37.67;;;19.07;;
7273;SDS011;3678;60.002;17.846;2022-10-16T00:35:57;34.87;;;19.40;;
7273;SDS011;3678;60.002;17.846;2022-10-16T00:38:24;33.17;;;20.77;;
7273;SDS011;3678;60.002;17.846;2022-10-16T00:40:53;42.27;;;20.90;;
7273;SDS011;3678;60.002;17.846;2022-10-16T00:43:34;32.27;;;20.07;;
7273;SDS011;3678;60.002;17.846;2022-10-16T00:46:02;36.40;;;20.13;;
7273;SDS011;3678;60.002;17.846;2022-10-16T00:48:29;32.27;;;19.30;;
7273;SDS011;3678;60.002;17.846;2022-10-16T00:50:57;34.90;;;19.57;;
7273;SDS011;3678;60.002;17.846;2022-10-16T00:53:24;32.27;;;19.40;;
7273;SDS011;3678;60.002;17.846;2022-10-16T00:55:53;34.03;;;19.43;;
7273;SDS011;3678;60.002;17.846;2022-10-16T00:58:20;29.03;;;19.30;;
7273;SDS011;3678;60.002;17.846;2022-10-16T01:00:48;30.07;;;17.67;;
7273;SDS011;3678;60.002;17.846;2022-10-16T01:03:23;27.20;;;17.70;;
7273;SDS011;3678;60.002;17.846;2022-10-16T01:05:53;29.93;;;18.30;;
7273;SDS011;3678;60.002;17.846;2022-10-16T01:08:24;27.33;;;17.53;;
7273;SDS011;3678;60.002;17.846;2022-10-16T01:10:57;26.27;;;17.73;;
7273;SDS011;3678;60.002;17.846;2022-10-16T01:13:27;30.87;;;16.80;;
7273;SDS011;3678;60.002;17.846;2022-10-16T01:15:58;28.10;;;16.67;;
7273;SDS011;3678;60.002;17.846;2022-10-16T01:18:28;26.37;;;16.07;;
7273;SDS011;3678;60.002;17.846;2022-10-16T01:20:58;19.17;;;14.20;;
7273;SDS011;3678;60.002;17.846;2022-10-16T01:23:29;21.17;;;14.30;;
7273;SDS011;3678;60.002;17.846;2022-10-16T01:26:10;21.10;;;14.53;;
7273;SDS011;3678;60.002;17.846;2022-10-16T01:28:43;22.13;;;13.60;;
7273;SDS011;3678;60.002;17.846;2022-10-16T01:31:14;20.97;;;14.20;;
7273;SDS011;3678;60.002;17.846;2022-10-16T01:33:42;22.67;;;14.17;;
7273;SDS011;3678;60.002;17.846;2022-10-16T01:36:11;20.40;;;12.97;;
7273;SDS011;3678;60.002;17.846;2022-10-16T01:38:40;24.30;;;14.33;;
7273;SDS011;3678;60.002;17.846;2022-10-16T01:41:08;19.70;;;13.10;;
7273;SDS011;3678;60.002;17.846;2022-10-16T01:43:37;21.63;;;13.17;;
7273;SDS011;3678;60.002;17.846;2022-10-16T01:46:07;21.63;;;14.20;;
7273;SDS011;3678;60.002;17.846;2022-10-16T01:48:35;23.77;;;13.43;;
7273;SDS011;3678;60.002;17.846;2022-10-16T01:51:04;22.33;;;13.07;;
7273;SDS011;3678;60.002;17.846;2022-10-16T01:53:32;22.63;;;14.20;;
7273;SDS011;3678;60.002;17.846;2022-10-16T01:55:59;19.30;;;12.97;;
7273;SDS011;3678;60.002;17.846;2022-10-16T01:58:28;18.37;;;12.97;;
7273;SDS011;3678;60.002;17.846;2022-10-16T02:00:59;20.47;;;13.13;;
7273;SDS011;3678;60.002;17.846;2022-10-16T02:03:29;20.47;;;12.80;;
7273;SDS011;3678;60.002;17.846;2022-10-16T02:05:58;17.47;;;12.73;;
7273;SDS011;3678;60.002;17.846;2022-10-16T02:08:26;19.80;;;13.00;;
7273;SDS011;3678;60.002;17.846;2022-10-16T02:10:54;17.30;;;12.10;;
7273;SDS011;3678;60.002;17.846;2022-10-16T02:13:23;20.10;;;13.73;;
7273;SDS011;3678;60.002;17.846;2022-10-16T02:15:50;22.33;;;13.40;;
7273;SDS011;3678;60.002;17.846;2022-10-16T02:18:18;20.17;;;11.80;;
7273;SDS011;3678;60.002;17.846;2022-10-16T02:20:48;16.80;;;10.77;;
7273;SDS011;3678;60.002;17.846;2022-10-16T02:23:19;21.47;;;12.00;;
7273;SDS011;3678;60.002;17.846;2022-10-16T02:25:46;15.87;;;11.87;;
7273;SDS011;3678;60.002;17.846;2022-10-16T02:28:15;14.63;;;10.07;;
7273;SDS011;3678;60.002;17.846;2022-10-16T02:30:44;19.17;;;13.23;;
7273;SDS011;3678;60.002;17.846;2022-10-16T02:33:13;17.73;;;12.37;;
7273;SDS011;3678;60.002;17.846;2022-10-16T02:35:41;16.93;;;11.00;;
7273;SDS011;3678;60.002;17.846;2022-10-16T02:38:10;16.00;;;10.63;;
7273;SDS011;3678;60.002;17.846;2022-10-16T02:40:37;16.73;;;11.60;;
7273;SDS011;3678;60.002;17.846;2022-10-16T02:43:05;14.07;;;11.27;;
7273;SDS011;3678;60.002;17.846;2022-10-16T02:45:33;16.77;;;10.43;;
7273;SDS011;3678;60.002;17.846;2022-10-16T02:48:00;13.47;;;10.97;;
7273;SDS011;3678;60.002;17.846;2022-10-16T02:50:27;24.77;;;10.83;;
7273;SDS011;3678;60.002;17.846;2022-10-16T02:52:54;13.57;;;10.07;;
7273;SDS011;3678;60.002;17.846;2022-10-16T02:55:23;15.23;;;11.20;;
7273;SDS011;3678;60.002;17.846;2022-10-16T02:57:51;14.93;;;10.77;;
7273;SDS011;3678;60.002;17.846;2022-10-16T03:00:18;14.33;;;9.97;;
7273;SDS011;3678;60.002;17.846;2022-10-16T03:02:46;14.53;;;10.80;;
7273;SDS011;3678;60.002;17.846;2022-10-16T03:05:13;15.97;;;11.17;;
7273;SDS011;3678;60.002;17.846;2022-10-16T03:07:40;15.90;;;11.47;;
7273;SDS011;3678;60.002;17.846;2022-10-16T03:10:08;18.40;;;11.97;;
7273;SDS011;3678;60.002;17.846;2022-10-16T03:12:37;21.20;;;12.40;;
7273;SDS011;3678;60.002;17.846;2022-10-16T03:15:04;17.43;;;11.40;;
7273;SDS011;3678;60.002;17.846;2022-10-16T03:17:31;22.80;;;12.47;;
7273;SDS011;3678;60.002;17.846;2022-10-16T03:19:59;17.87;;;12.33;;
7273;SDS011;3678;60.002;17.846;2022-10-16T03:22:26;19.23;;;13.17;;
7273;SDS011;3678;60.002;17.846;2022-10-16T03:24:54;20.50;;;12.53;;
7273;SDS011;3678;60.002;17.846;2022-10-16T03:27:21;21.43;;;12.90;;
7273;SDS011;3678;60.002;17.846;2022-10-16T03:29:49;20.07;;;12.97;;
7273;SDS011;3678;60.002;17.846;2022-10-16T03:32:16;24.80;;;17.60;;
7273;SDS011;3678;60.002;17.846;2022-10-16T03:34:45;22.83;;;15.13;;
7273;SDS011;3678;60.002;17.846;2022-10-16T03:37:12;19.70;;;12.07;;
7273;SDS011;3678;60.002;17.846;2022-10-16T03:39:39;17.33;;;12.43;;
7273;SDS011;3678;60.002;17.846;2022-10-16T03:42:06;21.50;;;11.47;;
7273;SDS011;3678;60.002;17.846;2022-10-16T03:44:34;18.90;;;11.80;;
7273;SDS011;3678;60.002;17.846;2022-10-16T03:47:02;21.43;;;11.57;;
7273;SDS011;3678;60.002;17.846;2022-10-16T03:49:30;20.27;;;12.40;;
7273;SDS011;3678;60.002;17.846;2022-10-16T03:51:57;16.23;;;11.47;;
7273;SDS011;3678;60.002;17.846;2022-10-16T03:54:24;17.83;;;11.60;;
7273;SDS011;3678;60.002;17.846;2022-10-16T03:56:51;18.13;;;11.43;;
7273;SDS011;3678;60.002;17.846;2022-10-16T03:59:18;18.80;;;11.80;;
7273;SDS011;3678;60.002;17.846;2022-10-16T04:01:46;19.97;;;11.47;;
7273;SDS011;3678;60.002;17.846;2022-10-16T04:04:14;15.87;;;10.53;;
7273;SDS011;3678;60.002;17.846;2022-10-16T04:06:41;15.57;;;10.57;;
7273;SDS011;3678;60.002;17.846;2022-10-16T04:09:08;16.83;;;10.70;;
7273;SDS011;3678;60.002;17.846;2022-10-16T04:11:36;15.40;;;10.20;;
7273;SDS011;3678;60.002;17.846;2022-10-16T04:14:03;15.03;;;9.93;;
7273;SDS011;3678;60.002;17.846;2022-10-16T04:16:31;18.45;;;12.82;;
7273;SDS011;3678;60.002;17.846;2022-10-16T04:18:58;15.17;;;10.30;;
7273;SDS011;3678;60.002;17.846;2022-10-16T04:21:26;17.63;;;10.80;;
7273;SDS011;3678;60.002;17.846;2022-10-16T04:23:54;15.60;;;9.93;;
7273;SDS011;3678;60.002;17.846;2022-10-16T04:26:21;15.23;;;10.93;;
7273;SDS011;3678;60.002;17.846;2022-10-16T04:28:48;12.33;;;9.90;;
7273;SDS011;3678;60.002;17.846;2022-10-16T04:31:15;14.37;;;10.43;;
7273;SDS011;3678;60.002;17.846;2022-10-16T04:33:42;19.57;;;10.13;;
7273;SDS011;3678;60.002;17.846;2022-10-16T04:36:10;15.13;;;10.47;;
7273;SDS011;3678;60.002;17.846;2022-10-16T04:38:38;14.23;;;9.83;;
7273;SDS011;3678;60.002;17.846;2022-10-16T04:41:05;12.43;;;9.90;;
7273;SDS011;3678;60.002;17.846;2022-10-16T04:43:33;14.63;;;10.00;;
7273;SDS011;3678;60.002;17.846;2022-10-16T04:46:00;15.07;;;9.27;;
7273;SDS011;3678;60.002;17.846;2022-10-16T04:48:29;13.07;;;9.00;;
7273;SDS011;3678;60.002;17.846;2022-10-16T04:50:56;14.37;;;9.53;;
7273;SDS011;3678;60.002;17.846;2022-10-16T04:53:24;13.30;;;9.20;;
7273;SDS011;3678;60.002;17.846;2022-10-16T04:55:52;16.03;;;10.43;;
7273;SDS011;3678;60.002;17.846;2022-10-16T04:58:19;15.17;;;10.07;;
7273;SDS011;3678;60.002;17.846;2022-10-16T05:00:47;15.57;;;9.87;;
7273;SDS011;3678;60.002;17.846;2022-10-16T05:03:14;13.87;;;9.70;;
7273;SDS011;3678;60.002;17.846;2022-10-16T05:05:42;14.90;;;10.03;;
7273;SDS011;3678;60.002;17.846;2022-10-16T05:08:10;15.70;;;9.50;;
7273;SDS011;3678;60.002;17.846;2022-10-16T05:10:37;15.10;;;9.67;;
7273;SDS011;3678;60.002;17.846;2022-10-16T05:13:06;13.03;;;8.53;;
7273;SDS011;3678;60.002;17.846;2022-10-16T05:15:33;17.40;;;10.60;;
7273;SDS011;3678;60.002;17.846;2022-10-16T05:18:00;11.50;;;8.30;;
7273;SDS011;3678;60.002;17.846;2022-10-16T05:20:27;15.27;;;9.27;;
7273;SDS011;3678;60.002;17.846;2022-10-16T05:22:55;14.30;;;9.80;;
7273;SDS011;3678;60.002;17.846;2022-10-16T05:25:22;10.93;;;8.53;;
7273;SDS011;3678;60.002;17.846;2022-10-16T05:27:49;12.23;;;8.40;;
7273;SDS011;3678;60.002;17.846;2022-10-16T05:30:18;12.17;;;8.40;;
7273;SDS011;3678;60.002;17.846;2022-10-16T05:32:48;11.13;;;8.10;;
7273;SDS011;3678;60.002;17.846;2022-10-16T05:35:15;17.13;;;8.30;;
7273;SDS011;3678;60.002;17.846;2022-10-16T05:37:43;13.57;;;8.80;;
7273;SDS011;3678;60.002;17.846;2022-10-16T05:40:10;16.17;;;8.83;;
7273;SDS011;3678;60.002;17.846;2022-10-16T05:42:38;14.80;;;8.60;;
7273;SDS011;3678;60.002;17.846;2022-10-16T05:45:05;16.27;;;8.27;;
7273;SDS011;3678;60.002;17.846;2022-10-16T05:51:03;12.70;;;8.20;;
7273;SDS011;3678;60.002;17.846;2022-10-16T05:53:32;11.50;;;7.60;;
7273;SDS011;3678;60.002;17.846;2022-10-16T05:55:59;10.73;;;6.90;;
7273;SDS011;3678;60.002;17.846;2022-10-16T05:58:28;12.80;;;7.90;;
7273;SDS011;3678;60.002;17.846;2022-10-16T06:00:55;10.80;;;7.60;;
7273;SDS011;3678;60.002;17.846;2022-10-16T06:03:23;9.93;;;7.13;;
7273;SDS011;3678;60.002;17.846;2022-10-16T06:05:50;10.03;;;6.60;;
7273;SDS011;3678;60.002;17.846;2022-10-16T06:08:18;10.13;;;7.13;;
7273;SDS011;3678;60.002;17.846;2022-10-16T06:10:46;8.90;;;6.07;;
7273;SDS011;3678;60.002;17.846;2022-10-16T06:13:13;10.37;;;6.83;;
7273;SDS011;3678;60.002;17.846;2022-10-16T06:15:41;9.40;;;7.00;;
7273;SDS011;3678;60.002;17.846;2022-10-16T06:18:08;8.00;;;6.70;;
7273;SDS011;3678;60.002;17.846;2022-10-16T06:20:36;10.33;;;7.17;;
7273;SDS011;3678;60.002;17.846;2022-10-16T06:23:03;11.67;;;7.03;;
7273;SDS011;3678;60.002;17.846;2022-10-16T06:25:32;8.77;;;6.20;;
7273;SDS011;3678;60.002;17.846;2022-10-16T06:27:59;9.23;;;6.90;;
7273;SDS011;3678;60.002;17.846;2022-10-16T06:30:26;11.60;;;8.10;;
7273;SDS011;3678;60.002;17.846;2022-10-16T06:32:53;9.60;;;6.90;;
7273;SDS011;3678;60.002;17.846;2022-10-16T06:35:20;10.67;;;7.13;;
7273;SDS011;3678;60.002;17.846;2022-10-16T06:37:48;8.67;;;6.77;;
7273;SDS011;3678;60.002;17.846;2022-10-16T06:40:16;9.43;;;5.67;;
7273;SDS011;3678;60.002;17.846;2022-10-16T06:42:44;10.87;;;5.87;;
7273;SDS011;3678;60.002;17.846;2022-10-16T06:45:11;7.50;;;5.60;;
7273;SDS011;3678;60.002;17.846;2022-10-16T06:47:39;10.00;;;6.17;;
7273;SDS011;3678;60.002;17.846;2022-10-16T06:50:06;17.00;;;6.47;;
7273;SDS011;3678;60.002;17.846;2022-10-16T06:52:33;7.30;;;5.73;;
7273;SDS011;3678;60.002;17.846;2022-10-16T06:55:01;7.83;;;6.00;;
7273;SDS011;3678;60.002;17.846;2022-10-16T06:57:28;7.43;;;5.50;;
7273;SDS011;3678;60.002;17.846;2022-10-16T06:59:57;8.53;;;5.80;;
7273;SDS011;3678;60.002;17.846;2022-10-16T07:02:24;10.23;;;6.07;;
7273;SDS011;3678;60.002;17.846;2022-10-16T07:04:51;6.90;;;5.77;;
7273;SDS011;3678;60.002;17.846;2022-10-16T07:07:18;9.27;;;5.47;;
7273;SDS011;3678;60.002;17.846;2022-10-16T07:09:45;8.90;;;5.63;;
7273;SDS011;3678;60.002;17.846;2022-10-16T07:12:12;8.97;;;6.03;;
7273;SDS011;3678;60.002;17.846;2022-10-16T07:14:39;7.27;;;5.63;;
7273;SDS011;3678;60.002;17.846;2022-10-16T07:17:08;8.60;;;5.57;;
7273;SDS011;3678;60.002;17.846;2022-10-16T07:19:35;7.03;;;5.37;;
7273;SDS011;3678;60.002;17.846;2022-10-16T07:22:03;7.77;;;5.83;;
7273;SDS011;3678;60.002;17.846;2022-10-16T07:24:30;7.17;;;4.97;;
7273;SDS011;3678;60.002;17.846;2022-10-16T07:26:57;7.80;;;5.93;;
7273;SDS011;3678;60.002;17.846;2022-10-16T07:29:24;8.03;;;5.37;;
7273;SDS011;3678;60.002;17.846;2022-10-16T07:31:51;7.65;;;6.55;;
7273;SDS011;3678;60.002;17.846;2022-10-16T07:34:20;7.30;;;4.73;;
7273;SDS011;3678;60.002;17.846;2022-10-16T07:36:47;7.37;;;5.70;;
7273;SDS011;3678;60.002;17.846;2022-10-16T07:39:15;6.57;;;4.57;;
7273;SDS011;3678;60.002;17.846;2022-10-16T07:41:43;6.20;;;4.80;;
7273;SDS011;3678;60.002;17.846;2022-10-16T07:44:10;8.17;;;5.30;;
7273;SDS011;3678;60.002;17.846;2022-10-16T07:46:37;8.60;;;5.65;;
7273;SDS011;3678;60.002;17.846;2022-10-16T07:49:04;7.67;;;4.47;;
7273;SDS011;3678;60.002;17.846;2022-10-16T07:51:33;7.53;;;4.70;;
7273;SDS011;3678;60.002;17.846;2022-10-16T07:54:00;7.83;;;4.40;;
7273;SDS011;3678;60.002;17.846;2022-10-16T07:56:27;8.27;;;4.90;;
7273;SDS011;3678;60.002;17.846;2022-10-16T07:58:54;4.83;;;4.10;;
7273;SDS011;3678;60.002;17.846;2022-10-16T08:01:21;8.13;;;4.93;;
7273;SDS011;3678;60.002;17.846;2022-10-16T08:03:49;6.70;;;4.70;;
7273;SDS011;3678;60.002;17.846;2022-10-16T08:06:17;7.27;;;5.37;;
7273;SDS011;3678;60.002;17.846;2022-10-16T08:08:46;7.10;;;4.80;;
7273;SDS011;3678;60.002;17.846;2022-10-16T08:11:13;6.70;;;5.00;;
7273;SDS011;3678;60.002;17.846;2022-10-16T08:13:40;6.37;;;4.50;;
7273;SDS011;3678;60.002;17.846;2022-10-16T08:16:08;5.80;;;4.70;;
7273;SDS011;3678;60.002;17.846;2022-10-16T08:18:35;8.23;;;5.53;;
